Portada
METAR-TAF:

METAR-TAF

Aeroports :

Àqaba, Jordània

latitud: 29-38N, longitud: 035-01E, altitud: 53 m

Observació

L'informe es va fer fa 41 minuts, a les 10:00 UTC
Vent calma
Temperatura 30°C
Humitat 40%
Pressió 1008 hPa
Visibilitat 10 km o més
sense núvols per sota de 1500 mi sense presència de cumulonimbus.

METAR: OJAQ 231000Z 00000KT CAVOK 30/15 Q1008 NOSIG

Hora: 13:41 (10:41 UTC)

Pronòstic

L'informe es va fer fa 5 hores i 43 minuts, a les 04:58 UTC
Pronòstic vàlid del 23 a les 06 UTC al 24 a les 12 UTC
Vent 10 kt del Nord
Visibilitat: 8000 m
Núvols disperses a una alçada de 10000 ft
Probabilitat 40% :
Temporalment
l' 23 a les 10 UTC al 23 a les 20 UTC
Vent 18 kt del Nord
Visibilitat: 5000 m
Escasses núvols a una alçada de 4000 ft, Cumulonimbus.
Cel ennuvolat a una alçada de 8000 ft
tempesta, xàfecs de pluja, Pols estès

TAF: OJAQ 230458Z 2306/2412 36010KT 8000 SCT100 PROB40 TEMPO 2310/2320 36018KT 5000 TS SHRA DU FEW040CB BKN080

Observacions i pronòstics meteorològics de més de 4000 aeroports (METAR i TAF).

Les estacions disponibles són els punts grocs i vermells al mapa.

Posi el ratolí al punt desitjat per veure el nom de l'estació.

Feu clic per veure les observacions i els pronòstics meteorològics.

Per canviar el mapa: feu clic els botons verds amb una creu de color negre per apropar; al botó verd amb un guió per allunyar la imatge; o en les fletxes verdes per a mapes adjacents.


METAR-TAF: